Terminal Aerodrome Forecast
Issued by NWS

Home | Current Version | Previous Version | Text Only | Print | Product List | Glossary On
Versions: 1 2 3 4 5 6 7 8 9 10 11 12 13 14 15 16 17 18 19 20 21 22 23 24 25
000
FTUS46 KOTX 231506 AAA
TAFSFF
TAF AMD
KSFF 231506Z 2315/2412 00000KT 3SM BR BKN005 OVC010
     FM231700 VRB02KT 5SM BR BKN007
     FM231900 VRB03KT P6SM FEW007
     FM240600 VRB02KT 3SM BR BCFG SCT002=

USA.gov is the U.S. government's official web portal to all federal, state and local government web resources and services.